< < Back
Terminal Aerodrome Forecast


Current Version              Previous Versions:   1  2  3  4  5  6  7  8  9  

Terminal Aerodrome Forecast

977
FTUS42 KGSP 250537
TAFHKY
TAF
KHKY 250537Z 2506/2606 26005KT P6SM SKC
     FM250800 00000KT P6SM SKC
     FM251800 18006KT P6SM FEW250
     FM252300 19005KT P6SM BKN110=



Latest METAR

719
SAUS70 KWBC 260800 RRG
MTRHKY
METAR KHKY 260753Z AUTO 00000KT 10SM CLR 05/M01 A2964 RMK AO2 SLP029
T00501011


USA.gov is the U.S. government's official web portal to all federal, state and local government web resources and services.